Skip Navigation Links www.nws.noaa.gov 
NOAA logo - Click to go to the NOAA homepage National Weather Service   NWS logo - Click to go to the NWS homepage
NCEP Central Operations
Search 
   

Local forecast by
"City, St"

Search NCO
NCEP Home > NCEP Central Operations > Data Management and Quality Assessment Branch > Quality Assessment Project > Raob Data Manual Quality Control Reports > Mexican Raob Data Manual Quality Control Reports

Latest Mexican Raob Data Manual Quality Control Report Printer image icon. Printer Friendly Version

Latest Mexican Raob Data Manual Quality Control Report

Previous Mexican Raob Data Manual Quality Control Reports


                RAOB DATA MANUAL QUALITY CONTROL (QC) REPORT
                                  MEXICAN
                       From 20140801 through 20140831

 ___DATE___ HOUR REASN DETAILS...

76225/CUU
   20140801  12Z 10144 Power failure...10144
   20140816  12Z 10156 10156

2 records found

76256/GYM
   20140801  12Z 10158 Flight equipment failure...10158
   20140802  12Z 10142 Ground equipment failure...10142
   20140803  12Z 10142 Ground equipment failure...10142
   20140804  12Z 10158 10158
   20140805  12Z 10158 10158
   20140806  12Z 10142 10142
   20140807  12Z 10142 10142...Ground equipment failure.
   20140808  12Z 10158 10158...flight equipment failure
   20140809  12Z 10158 10158.
   20140810  12Z 10142 10142.
   20140811  12Z 10142 10142...ground equipment failure
   20140812  12Z 10158 10158...Flight equipment failure
   20140813  12Z 10158 10158...Flight equipment failure.
   20140814  00Z 10159 10159
   20140814  12Z 10142 10142...Ground equipment failure
   20140815  12Z 10142 10142...Ground equipment failure
   20140816  12Z 10158 10158
   20140817  12Z 10158 10158
   20140818  12Z 10142 10142; ground equip problems..
   20140819  12Z 10142 10142; Ground equip problems..
   20140820  12Z 10158 10158; flight equip problems..
   20140821  12Z 10158 10158

22 records found

76394/MTY
   20140801  12Z 10142 Ground equipment failure...10142

1 record found

76458/MZT
   20140804  12Z 10144 10144
   20140809  12Z 10142 10142.
   20140830  00Z  MISG Missing TTBB

3 records found

76526/ZAC
   20140813  12Z 10159 10159
   20140814  12Z 10140 10140...Report not filed
   20140815  12Z 10140 10140...Report not filed

3 records found




76595/CUN
   20140808  12Z 10144 10144...power failure

1 record found

76612/GDL
   20140801  12Z DELET Deleted spurious wind at 814 mb
   20140819  12Z SHORT Short to 563mb..
   20140828  00Z SHORT Short to 428mb
   20140831  00Z DELET Purge all temps and humidity bad sounding..

4 records found

76644/MID
   20140826  12Z DELET Purged T/RH 1000-850mb...wet-bulb effect

1 record found

76654/MZL
   20140803  12Z 10142 Ground equipment failure...10142
   20140806  00Z 10144 10144...power failure
   20140809  12Z 10159 10159.
   20140812  00Z 10159 10159.
   20140812  12Z 10142 10142...Ground equipment failure
   20140826  00Z 10159 10159
   20140826  12Z SHORT Short to 436mb
   20140827  12Z 10142 10142.
   20140830  12Z 10144 10144...Power failure.

9 records found

76679/MEX
   20140816  00Z DELET Purged temp/rh 442-399 mb...cold...super-adiabatic

1 record found

76692/HYY
   20140801  00Z 10158 10158.
   20140802  00Z 10158 10158.
   20140803  00Z 10158 10158; flight equip problems..
   20140804  00Z 10158 10158; flight equip problem..
   20140805  00Z 10158 10158...flight equipment failure
   20140806  00Z 10158 10158...flight equipment failure
   20140807  00Z 10158 10158...flight equipment failure
   20140808  00Z 10158 10158
   20140809  00Z 10158 10158
   20140810  00Z 10158 Flight equipment failure...10158
   20140812  00Z 10158 10158...Flight equipment failure.
   20140813  00Z 10158 10158...Flight equipment failure.
   20140814  00Z 10158 10158
   20140815  00Z 10158 10158...flight equipment failure
   20140816  00Z 10158 10158...flight equipment failure


   20140818  00Z 10158 10158.
   20140819  00Z 10158 10158...Flight equipment failure
   20140820  00Z 10158 10158...Flight equipment failure
   20140821  00Z 10158 10158...Flight equipment failure
   20140822  00Z 10158 10158; Flight equip problems..
   20140823  00Z 10158 10158; Flight equip problems..
   20140824  00Z 10158 10158
   20140825  00Z 10158 10158
   20140827  00Z 10158 10158
   20140828  00Z 10158 10158...Flight equipment failure
   20140829  00Z 10158 10158...Flight equipment failure
   20140830  00Z 10158 10158...Flight equipment failure
   20140831  00Z 10158 10158; Flight equip problems..

28 records found

76743/VHA
   20140804  12Z 10142 10142
   20140808  12Z 10142 10142...ground equipment failure
   20140810  12Z 10142 10142.
   20140812  12Z 10142 10142...Ground equipment failure
   20140816  12Z 10142 10142
   20140820  12Z 10142 10142; ground equip problems..
   20140824  12Z 10142 10142...Ground equipment failure

7 records found

76805/ACA
   20140804  12Z 10158 10158
   20140815  12Z 10144 10144...Power failure
   20140819  12Z 10158 10158; Flight equip problems..
   20140820  12Z 10158 10158; flight equip problems..
   20140821  12Z 10158 10158
   20140822  12Z 10142 10142...Ground equipment failure
   20140828  12Z 10158 10158.

7 records found

76903/TAP
   20140804  12Z DELET Purged all hghts...baseline error...purged temps 124mb
                 BASEL and up
   20140805  12Z DELET Purged all hgts...too low
   20140806  12Z DELET Purged all hgts...baseline error
                 BASEL
   20140807  12Z DELET Purged heights 500mb and up...too low.
   20140813  12Z 10142 10142...Ground equipment failure.
   20140815  12Z 10142 10142...Ground equipment failure

6 records found





SELECTED STATIONS WITH NO SDM QC:
  76405/LAP


This and related reports are available on the Web at . . .
http://www.nco.ncep.noaa.gov/sib/qap/raobqc/


  

NOAA/ National Weather Service
National Centers for Environmental Prediction
NCEP Central Operations
5830 University Research Court
College Park, MD 20740
NCO Web Team
Disclaimer Privacy Policy
Page last modified: Tuesday, 14-Sep-2004 17:34:26 UTC